createdAt,value
2019-05-11T00:02:08.786Z,81.50
2019-05-11T00:04:37.429Z,82.10
2019-05-11T00:07:06.103Z,82.50
2019-05-11T00:09:34.705Z,82.90
2019-05-11T00:12:03.724Z,83.30
2019-05-11T00:14:32.491Z,83.60
2019-05-11T00:17:01.183Z,83.90
2019-05-11T00:19:29.781Z,84.10
2019-05-11T00:21:58.333Z,84.30
2019-05-11T00:24:29.351Z,84.40
2019-05-11T00:26:57.226Z,84.40
2019-05-11T00:29:26.253Z,84.50
2019-05-11T00:31:54.994Z,85.30
2019-05-11T00:34:23.578Z,84.70
2019-05-11T00:36:52.170Z,84.90
2019-05-11T00:39:21.038Z,85.20
2019-05-11T00:41:49.681Z,85.40
2019-05-11T00:44:18.284Z,85.70
2019-05-11T00:46:46.881Z,85.90
2019-05-11T00:49:15.439Z,86.10
2019-05-11T00:51:44.187Z,86.30
2019-05-11T00:54:12.849Z,86.60
2019-05-11T00:56:41.459Z,86.90
2019-05-11T00:59:21.370Z,86.90
2019-05-11T01:01:40.299Z,87.10
2019-05-11T01:04:09.001Z,87.10
2019-05-11T01:06:37.753Z,87.10
2019-05-11T01:09:08.312Z,87.30
2019-05-11T01:11:36.970Z,87.50
2019-05-11T01:14:05.847Z,87.70
2019-05-11T01:16:34.594Z,87.60
2019-05-11T01:19:03.279Z,87.60
2019-05-11T01:21:31.969Z,87.60
2019-05-11T01:24:00.525Z,87.40
2019-05-11T01:26:29.274Z,87.90
2019-05-11T01:28:57.850Z,88.40
2019-05-11T01:31:26.410Z,88.80
2019-05-11T01:33:55.315Z,89.00
2019-05-11T01:36:23.871Z,88.50
2019-05-11T01:38:52.494Z,88.40
2019-05-11T01:41:21.087Z,88.30
2019-05-11T01:43:49.707Z,87.90
2019-05-11T01:46:18.375Z,88.60
2019-05-11T01:48:46.967Z,87.50
2019-05-11T01:51:15.547Z,87.40
2019-05-11T01:53:47.638Z,87.50
2019-05-11T01:56:14.420Z,87.70
2019-05-11T01:58:42.994Z,87.90
2019-05-11T02:01:11.582Z,88.40
2019-05-11T02:03:40.159Z,88.70
2019-05-11T02:06:08.799Z,88.90
2019-05-11T02:08:37.475Z,89.30
2019-05-11T02:11:15.316Z,89.20
2019-05-11T02:13:36.403Z,89.00
2019-05-11T02:16:05.151Z,88.80
2019-05-11T02:18:34.076Z,88.70
2019-05-11T02:21:02.667Z,88.40
2019-05-11T02:23:31.378Z,88.20
2019-05-11T02:26:00.119Z,88.30
2019-05-11T02:28:28.674Z,88.20
2019-05-11T02:30:57.361Z,88.30
2019-05-11T02:33:25.926Z,88.50
2019-05-11T02:35:54.509Z,88.80
2019-05-11T02:38:23.080Z,89.20
2019-05-11T02:40:51.774Z,89.40
2019-05-11T02:43:20.430Z,89.70
2019-05-11T02:45:49.114Z,89.80
2019-05-11T02:48:17.970Z,89.50
2019-05-11T02:50:47.093Z,89.50
2019-05-11T02:53:16.544Z,89.50
2019-05-11T02:55:47.712Z,89.30
2019-05-11T02:58:16.758Z,89.00
2019-05-11T03:00:47.073Z,89.00
2019-05-11T03:03:15.653Z,89.20
2019-05-11T03:05:44.593Z,89.30
2019-05-11T03:08:13.127Z,89.40
2019-05-11T03:10:41.702Z,90.00
2019-05-11T03:13:10.301Z,90.00
2019-05-11T03:15:38.916Z,90.10
2019-05-11T03:18:07.615Z,90.00
2019-05-11T03:20:36.222Z,90.00
2019-05-11T03:23:04.980Z,89.70
2019-05-11T03:25:33.533Z,89.40
2019-05-11T03:28:02.275Z,89.20
2019-05-11T03:30:30.840Z,89.10
2019-05-11T03:32:59.516Z,89.10
2019-05-11T03:35:28.109Z,89.20
2019-05-11T03:37:56.691Z,88.90
2019-05-11T03:40:25.546Z,88.60
2019-05-11T03:42:54.295Z,88.40
2019-05-11T03:45:22.954Z,88.10
2019-05-11T03:47:51.912Z,88.00
2019-05-11T03:50:20.552Z,87.90
2019-05-11T03:52:49.141Z,87.50
2019-05-11T03:55:17.950Z,87.20
2019-05-11T03:57:46.580Z,87.10
2019-05-11T04:00:16.683Z,87.10
2019-05-11T04:02:45.373Z,87.10
2019-05-11T04:05:14.103Z,86.90
2019-05-11T04:07:42.689Z,87.10
2019-05-11T04:10:11.701Z,87.10
2019-05-11T04:12:40.402Z,86.90
2019-05-11T04:15:10.638Z,87.10
2019-05-11T04:17:39.243Z,87.50
2019-05-11T04:20:08.594Z,87.30
2019-05-11T04:22:37.238Z,87.10
2019-05-11T04:25:07.063Z,87.30
2019-05-11T04:27:35.991Z,87.50
2019-05-11T04:30:06.744Z,87.00
2019-05-11T04:32:35.327Z,86.60
2019-05-11T04:35:06.006Z,86.20
2019-05-11T04:37:34.646Z,85.70
2019-05-11T04:40:03.301Z,85.20
2019-05-11T04:42:31.869Z,84.60
2019-05-11T04:45:00.525Z,84.10
2019-05-11T04:47:29.107Z,83.80
2019-05-11T04:49:57.765Z,83.60
2019-05-11T04:52:26.482Z,83.80
2019-05-11T04:54:55.098Z,83.70
2019-05-11T04:57:23.804Z,83.80
2019-05-11T04:59:52.306Z,83.80
2019-05-11T05:02:21.784Z,83.90
2019-05-11T05:04:50.698Z,84.10
2019-05-11T05:07:19.596Z,84.10
2019-05-11T05:09:48.430Z,84.20
2019-05-11T05:12:17.071Z,84.30
2019-05-11T05:14:45.722Z,84.60
2019-05-11T05:17:14.296Z,84.40
2019-05-11T05:19:42.905Z,84.30
2019-05-11T05:22:11.526Z,84.30
2019-05-11T05:24:40.389Z,84.40
2019-05-11T05:27:09.019Z,84.40
2019-05-11T05:29:37.638Z,84.20
2019-05-11T05:32:06.299Z,83.90
2019-05-11T05:34:34.966Z,83.60
2019-05-11T05:37:03.573Z,83.30
2019-05-11T05:39:32.296Z,83.40
2019-05-11T05:42:01.171Z,83.40
2019-05-11T05:44:31.400Z,83.40
2019-05-11T05:47:00.119Z,83.40
2019-05-11T05:49:28.730Z,83.00
2019-05-11T05:51:58.482Z,82.80
2019-05-11T05:54:27.727Z,82.40
2019-05-11T05:56:56.330Z,81.90
2019-05-11T05:59:25.084Z,81.90
2019-05-11T06:01:53.752Z,81.70
2019-05-11T06:04:22.699Z,81.40
2019-05-11T06:06:51.349Z,81.50
2019-05-11T06:09:20.000Z,81.30
2019-05-11T06:11:48.723Z,81.20
2019-05-11T06:14:17.381Z,80.90
2019-05-11T06:16:46.343Z,80.40
2019-05-11T06:19:14.992Z,80.00
2019-05-11T06:21:43.665Z,78.90
2019-05-11T06:24:12.255Z,78.50
2019-05-11T06:26:41.158Z,77.80
2019-05-11T06:29:09.846Z,77.40
2019-05-11T06:31:38.729Z,76.40
2019-05-11T06:34:07.591Z,75.60
2019-05-11T06:36:36.210Z,74.00
2019-05-11T06:39:08.150Z,73.20
2019-05-11T06:41:37.611Z,72.30
2019-05-11T06:44:06.719Z,71.30
2019-05-11T06:46:35.602Z,70.10
2019-05-11T06:49:04.344Z,69.40
2019-05-11T06:51:33.019Z,68.10
2019-05-11T06:54:01.903Z,66.90
2019-05-11T06:56:30.893Z,65.60
2019-05-11T06:58:59.572Z,65.30
2019-05-11T07:01:28.611Z,64.60
2019-05-11T07:03:57.242Z,63.30
2019-05-11T07:06:30.090Z,62.50
2019-05-11T07:08:56.176Z,61.40
2019-05-11T07:11:24.831Z,60.30
2019-05-11T07:13:53.493Z,60.40
2019-05-11T07:16:22.530Z,59.50
2019-05-11T07:18:51.091Z,59.40
2019-05-11T07:21:19.901Z,59.10
2019-05-11T07:23:48.486Z,58.70
2019-05-11T07:26:18.603Z,58.90
2019-05-11T07:28:48.365Z,58.20
2019-05-11T07:31:17.231Z,58.20
2019-05-11T07:33:48.483Z,57.80
2019-05-11T07:36:17.773Z,57.10
2019-05-11T07:38:48.573Z,56.30
2019-05-11T07:41:17.628Z,55.50
2019-05-11T07:43:48.502Z,55.00
2019-05-11T07:46:18.339Z,54.30
2019-05-11T07:48:47.908Z,53.80
2019-05-11T07:51:18.281Z,52.70
2019-05-11T07:53:48.621Z,51.50
2019-05-11T07:56:18.813Z,51.30
2019-05-11T07:58:48.204Z,51.10
2019-05-11T08:01:18.829Z,50.20
2019-05-11T08:03:48.265Z,49.60
2019-05-11T08:06:18.491Z,49.70
2019-05-11T08:08:49.028Z,48.90
2019-05-11T08:11:18.331Z,48.20
2019-05-11T08:13:48.148Z,46.50
2019-05-11T08:16:18.509Z,46.10
2019-05-11T08:18:48.213Z,45.90
2019-05-11T08:21:17.967Z,45.00
2019-05-11T08:23:48.303Z,43.60
2019-05-11T08:26:18.996Z,42.70
2019-05-11T08:28:49.084Z,43.20
2019-05-11T08:31:18.959Z,42.60
2019-05-11T08:33:48.139Z,42.90
2019-05-11T08:36:18.440Z,43.30
2019-05-11T08:38:48.298Z,43.10
2019-05-11T08:41:18.495Z,43.10
2019-05-11T08:43:48.050Z,43.00
2019-05-11T08:46:18.516Z,43.00
2019-05-11T08:48:48.004Z,43.10
2019-05-11T08:51:18.746Z,42.80
2019-05-11T08:53:48.020Z,42.10
2019-05-11T08:56:18.919Z,42.00
2019-05-11T08:58:49.212Z,41.80
2019-05-11T09:01:18.366Z,42.00
2019-05-11T09:03:47.961Z,43.00
2019-05-11T09:06:17.975Z,43.20
2019-05-11T09:08:49.099Z,42.70
2019-05-11T09:11:19.092Z,41.90
2019-05-11T09:13:48.846Z,41.40
2019-05-11T09:16:19.025Z,41.30
2019-05-11T09:18:48.197Z,40.70
2019-05-11T09:21:19.030Z,40.60
2019-05-11T09:23:48.577Z,40.90
2019-05-11T09:26:18.151Z,41.00
2019-05-11T09:28:47.775Z,40.80
2019-05-11T09:31:18.600Z,40.90
2019-05-11T09:33:48.197Z,41.00
2019-05-11T09:36:18.116Z,41.20
2019-05-11T09:38:48.889Z,41.60
2019-05-11T09:41:18.118Z,41.50
2019-05-11T09:43:58.704Z,41.80
2019-05-11T09:46:31.859Z,41.10
2019-05-11T09:49:00.898Z,40.00
2019-05-11T09:51:29.550Z,40.30
2019-05-11T09:54:08.043Z,40.80
2019-05-11T09:56:38.166Z,41.30
2019-05-11T09:59:11.620Z,41.90
2019-05-11T10:01:40.246Z,42.60
2019-05-11T10:04:09.184Z,42.30
2019-05-11T10:06:38.992Z,42.50
2019-05-11T10:09:08.308Z,42.30
2019-05-11T10:11:39.685Z,41.70
2019-05-11T10:14:08.468Z,41.80
2019-05-11T10:16:38.682Z,40.80
2019-05-11T10:19:08.474Z,39.10
2019-05-11T10:21:38.464Z,37.60
2019-05-11T10:24:08.513Z,36.60
2019-05-11T10:26:38.426Z,36.30
2019-05-11T10:29:08.028Z,36.30
2019-05-11T10:31:38.696Z,35.90
2019-05-11T10:34:08.649Z,35.40
2019-05-11T10:36:38.570Z,36.20
2019-05-11T10:39:08.889Z,36.00
2019-05-11T10:41:38.718Z,35.40
2019-05-11T10:44:08.235Z,33.00
2019-05-11T10:46:38.048Z,34.80
2019-05-11T10:49:08.013Z,35.60
2019-05-11T10:51:38.297Z,36.10
2019-05-11T10:54:08.624Z,37.00
2019-05-11T10:56:38.879Z,38.20
2019-05-11T10:59:08.166Z,38.70
2019-05-11T11:01:38.002Z,39.40
2019-05-11T11:04:07.915Z,40.00
2019-05-11T11:06:38.718Z,40.50
2019-05-11T11:09:10.034Z,41.60
2019-05-11T11:11:38.879Z,41.30
2019-05-11T11:14:08.728Z,41.70
2019-05-11T11:16:41.981Z,42.50
2019-05-11T11:19:08.039Z,43.80
2019-05-11T11:21:38.346Z,44.90
2019-05-11T11:24:07.620Z,45.00
2019-05-11T11:26:40.273Z,46.00
2019-05-11T11:29:08.909Z,45.90
2019-05-11T11:31:39.578Z,46.60
2019-05-11T11:34:11.418Z,46.70
2019-05-11T11:36:39.949Z,46.80
2019-05-11T11:39:09.083Z,46.50
2019-05-11T11:41:38.043Z,45.50
2019-05-11T11:44:07.918Z,45.40
2019-05-11T11:46:50.341Z,45.90
2019-05-11T11:49:08.263Z,47.20
2019-05-11T11:51:37.872Z,47.60
2019-05-11T11:54:08.545Z,48.70
2019-05-11T11:56:38.019Z,49.90
2019-05-11T11:59:08.525Z,51.10
2019-05-11T12:01:38.402Z,51.60
2019-05-11T12:04:08.217Z,51.80
2019-05-11T12:06:38.557Z,52.40
2019-05-11T12:09:09.058Z,53.30
2019-05-11T12:11:38.216Z,53.80
2019-05-11T12:14:08.668Z,54.60
2019-05-11T12:16:40.190Z,55.40
2019-05-11T12:19:08.763Z,55.80
2019-05-11T12:21:37.943Z,56.00
2019-05-11T12:24:08.272Z,55.90
2019-05-11T12:26:38.837Z,55.70
2019-05-11T12:29:08.158Z,55.60
2019-05-11T12:31:37.997Z,55.30
2019-05-11T12:34:08.722Z,55.70
2019-05-11T12:36:38.703Z,56.80
2019-05-11T12:39:08.465Z,57.60
2019-05-11T12:41:38.729Z,57.80
2019-05-11T12:44:08.303Z,56.40
2019-05-11T12:46:39.386Z,55.60
2019-05-11T12:49:07.984Z,55.00
2019-05-11T12:51:38.240Z,55.50
2019-05-11T12:54:08.254Z,55.10
2019-05-11T12:56:38.377Z,56.70
2019-05-11T12:59:08.168Z,57.50
2019-05-11T13:01:38.200Z,58.10
2019-05-11T13:04:08.980Z,58.90
2019-05-11T13:06:38.478Z,60.90
2019-05-11T13:09:08.631Z,60.40
2019-05-11T13:11:37.982Z,60.40
2019-05-11T13:14:07.964Z,61.00
2019-05-11T13:16:37.871Z,61.10
2019-05-11T13:19:08.349Z,61.00
2019-05-11T13:21:38.227Z,62.20
2019-05-11T13:24:08.334Z,62.60
2019-05-11T13:26:38.069Z,62.50
2019-05-11T13:29:07.781Z,62.00
2019-05-11T13:31:38.456Z,61.60
2019-05-11T13:34:08.375Z,61.50
2019-05-11T13:36:38.223Z,62.10
2019-05-11T13:39:08.843Z,62.00
2019-05-11T13:41:38.397Z,61.50
2019-05-11T13:44:08.041Z,61.70
2019-05-11T13:46:38.856Z,61.70
2019-05-11T13:49:08.554Z,61.90
2019-05-11T13:51:39.103Z,61.70
2019-05-11T13:54:08.005Z,61.50
2019-05-11T13:56:37.924Z,61.40
2019-05-11T13:59:10.415Z,61.30
2019-05-11T14:01:38.442Z,61.10
2019-05-11T14:04:08.578Z,60.60
2019-05-11T14:06:37.864Z,60.70
2019-05-11T14:09:08.615Z,60.90
2019-05-11T14:11:39.014Z,60.70
2019-05-11T14:14:08.273Z,60.60
2019-05-11T14:16:37.913Z,60.80
2019-05-11T14:19:08.609Z,61.30
2019-05-11T14:21:38.483Z,61.60
2019-05-11T14:24:08.036Z,62.00
2019-05-11T14:26:38.585Z,62.40
2019-05-11T14:29:08.438Z,62.30
2019-05-11T14:31:38.756Z,62.70
2019-05-11T14:34:08.775Z,62.90
2019-05-11T14:36:38.837Z,63.90
2019-05-11T14:39:08.786Z,63.40
2019-05-11T14:41:39.819Z,63.60
2019-05-11T14:44:08.939Z,63.80
2019-05-11T14:46:38.555Z,64.20
2019-05-11T14:49:07.908Z,64.80
2019-05-11T14:51:38.978Z,65.40
2019-05-11T14:54:08.101Z,65.60
2019-05-11T14:56:38.103Z,65.60
2019-05-11T14:59:09.052Z,65.70
2019-05-11T15:01:38.392Z,66.20
2019-05-11T15:04:08.963Z,66.60
2019-05-11T15:06:38.623Z,66.90
2019-05-11T15:09:08.635Z,67.30
2019-05-11T15:11:38.882Z,67.60
2019-05-11T15:14:08.279Z,67.90
2019-05-11T15:16:38.350Z,68.30
2019-05-11T15:19:08.204Z,68.30
2019-05-11T15:21:38.738Z,68.90
2019-05-11T15:24:09.095Z,69.10
2019-05-11T15:26:38.090Z,69.70
2019-05-11T15:29:08.153Z,70.00
2019-05-11T15:31:38.065Z,70.70
2019-05-11T15:34:08.512Z,70.70
2019-05-11T15:36:38.668Z,71.20
2019-05-11T15:39:09.486Z,71.60
2019-05-11T15:41:38.838Z,71.80
2019-05-11T15:44:11.328Z,71.90
2019-05-11T15:46:38.947Z,72.70
2019-05-11T15:49:08.786Z,73.00
2019-05-11T15:51:41.071Z,73.00
2019-05-11T15:54:08.357Z,72.80
2019-05-11T15:56:38.543Z,72.70
2019-05-11T15:59:08.713Z,72.60
2019-05-11T16:01:38.276Z,72.70
2019-05-11T16:04:09.097Z,73.00
2019-05-11T16:06:38.098Z,73.00
2019-05-11T16:09:08.555Z,73.60
2019-05-11T16:11:38.738Z,74.20
2019-05-11T16:14:08.604Z,74.30
2019-05-11T16:16:39.025Z,74.60
2019-05-11T16:19:14.485Z,75.00
2019-05-11T16:21:38.771Z,75.20
2019-05-11T16:24:07.917Z,75.40
2019-05-11T16:26:37.231Z,75.80
2019-05-11T16:29:11.060Z,75.80
2019-05-11T16:31:37.903Z,76.40
2019-05-11T16:34:08.007Z,76.80
2019-05-11T16:36:38.670Z,77.00
2019-05-11T16:39:10.067Z,78.00
2019-05-11T16:41:38.162Z,78.60
2019-05-11T16:44:07.872Z,78.80
2019-05-11T16:46:38.892Z,79.50
2019-05-11T16:49:09.286Z,80.20
2019-05-11T16:51:38.892Z,80.20
2019-05-11T16:54:07.880Z,80.30
2019-05-11T16:56:38.270Z,81.00
2019-05-11T16:59:08.169Z,81.30
2019-05-11T17:01:37.895Z,81.20
2019-05-11T17:04:06.878Z,81.10
2019-05-11T17:06:37.902Z,81.20
2019-05-11T17:09:08.959Z,81.30
2019-05-11T17:11:38.303Z,81.40
2019-05-11T17:14:08.284Z,81.80
2019-05-11T17:16:38.574Z,82.30
2019-05-11T17:19:08.119Z,83.40
2019-05-11T17:21:38.246Z,83.60
2019-05-11T17:24:07.432Z,83.90
2019-05-11T17:26:38.587Z,84.50
2019-05-11T17:29:06.943Z,85.00
2019-05-11T17:31:37.596Z,85.10
2019-05-11T17:34:08.766Z,85.00
2019-05-11T17:36:36.524Z,85.10
2019-05-11T17:39:07.804Z,85.10
2019-05-11T17:41:38.656Z,85.10
2019-05-11T17:44:08.021Z,84.90
2019-05-11T17:46:38.484Z,85.20
2019-05-11T17:49:07.861Z,85.20
2019-05-11T17:51:38.119Z,85.50
2019-05-11T17:54:07.917Z,85.30
2019-05-11T17:56:38.764Z,85.40
2019-05-11T17:59:08.155Z,85.00
2019-05-11T18:01:37.019Z,84.80
2019-05-11T18:04:08.001Z,84.90
2019-05-11T18:06:38.291Z,85.00
2019-05-11T18:09:08.647Z,84.90
2019-05-11T18:11:38.201Z,84.70
2019-05-11T18:14:08.442Z,84.60
2019-05-11T18:16:37.362Z,84.70
2019-05-11T18:19:08.599Z,84.90
2019-05-11T18:21:38.477Z,85.20
2019-05-11T18:24:08.885Z,85.20
2019-05-11T18:26:38.243Z,85.00
2019-05-11T18:29:07.343Z,84.90
2019-05-11T18:31:38.334Z,84.90
2019-05-11T18:34:08.762Z,84.90
2019-05-11T18:36:38.232Z,84.70
2019-05-11T18:39:07.638Z,84.60
2019-05-11T18:41:38.831Z,84.50
2019-05-11T18:44:08.282Z,84.40
2019-05-11T18:46:38.840Z,83.90
2019-05-11T18:49:07.623Z,83.90
2019-05-11T18:51:37.853Z,83.80
2019-05-11T18:54:08.973Z,83.70
2019-05-11T18:56:38.276Z,83.40
2019-05-11T18:59:08.843Z,83.20
2019-05-11T19:01:38.004Z,83.00
2019-05-11T19:04:07.843Z,83.00
2019-05-11T19:06:37.823Z,82.80
2019-05-11T19:09:08.039Z,82.90
2019-05-11T19:11:38.346Z,82.80
2019-05-11T19:14:08.619Z,82.70
2019-05-11T19:16:38.964Z,82.80
2019-05-11T19:19:08.164Z,83.00
2019-05-11T19:21:37.285Z,83.40
2019-05-11T19:24:08.568Z,83.80
2019-05-11T19:26:37.187Z,83.50
2019-05-11T19:29:05.994Z,83.30
2019-05-11T19:31:34.603Z,83.40
2019-05-11T19:34:03.246Z,83.40
2019-05-11T19:36:31.917Z,83.20
2019-05-11T19:39:02.097Z,82.90
2019-05-11T19:41:30.953Z,82.70
2019-05-11T19:43:59.840Z,83.00
2019-05-11T19:46:28.513Z,83.30
2019-05-11T19:48:58.028Z,83.80
2019-05-11T19:51:28.890Z,84.50
2019-05-11T19:53:57.633Z,84.80
2019-05-11T19:56:28.745Z,85.00
2019-05-11T19:58:57.915Z,85.30
2019-05-11T20:01:27.892Z,86.00
2019-05-11T20:03:56.813Z,86.20
2019-05-11T20:06:27.882Z,86.70
2019-05-11T20:08:57.720Z,87.30
2019-05-11T20:11:27.890Z,87.80
2019-05-11T20:13:58.813Z,88.30
2019-05-11T20:16:26.770Z,88.50
2019-05-11T20:18:57.685Z,89.00
2019-05-11T20:21:25.976Z,89.40
2019-05-11T20:23:54.627Z,89.80
2019-05-11T20:26:23.231Z,90.00
2019-05-11T20:28:51.968Z,90.20
2019-05-11T20:31:20.697Z,90.30
2019-05-11T20:33:49.389Z,90.40
2019-05-11T20:36:18.075Z,90.50
2019-05-11T20:38:47.612Z,90.60
2019-05-11T20:41:16.648Z,90.70
2019-05-11T20:43:45.350Z,90.90
2019-05-11T20:46:13.932Z,90.90
2019-05-11T20:48:42.727Z,91.00
2019-05-11T20:51:11.284Z,91.10
2019-05-11T20:53:39.896Z,91.30
2019-05-11T20:56:08.780Z,91.20
2019-05-11T20:58:59.298Z,91.30
2019-05-11T21:01:28.875Z,91.50
2019-05-11T21:03:58.398Z,91.60
2019-05-11T21:06:29.471Z,91.60
2019-05-11T21:08:57.991Z,91.60
2019-05-11T21:11:26.755Z,91.70
2019-05-11T21:13:55.357Z,91.70
2019-05-11T21:16:23.954Z,91.50
2019-05-11T21:18:52.522Z,91.70
2019-05-11T21:21:21.102Z,91.70
2019-05-11T21:23:49.814Z,91.80
2019-05-11T21:26:18.904Z,91.80
2019-05-11T21:28:48.722Z,91.70
2019-05-11T21:31:18.599Z,91.80
2019-05-11T21:33:47.582Z,91.80
2019-05-11T21:36:18.078Z,91.70
2019-05-11T21:38:48.238Z,91.70
2019-05-11T21:41:16.808Z,91.60
2019-05-11T21:43:45.401Z,91.40
2019-05-11T21:46:14.006Z,91.30
2019-05-11T21:48:42.629Z,90.90
2019-05-11T21:51:11.202Z,90.60
2019-05-11T21:53:39.776Z,90.50
2019-05-11T21:56:08.469Z,90.40
2019-05-11T21:58:37.758Z,90.50
2019-05-11T22:01:07.002Z,90.50
2019-05-11T22:03:35.743Z,90.70
2019-05-11T22:06:04.382Z,90.80
2019-05-11T22:08:33.008Z,90.80
2019-05-11T22:11:01.678Z,91.00
2019-05-11T22:13:30.485Z,90.80
2019-05-11T22:15:59.066Z,90.90
2019-05-11T22:18:31.269Z,91.10
2019-05-11T22:20:58.143Z,91.30
2019-05-11T22:23:28.139Z,91.30
2019-05-11T22:25:58.691Z,91.40
2019-05-11T22:28:28.488Z,91.30
2019-05-11T22:30:57.450Z,91.30
2019-05-11T22:33:28.216Z,91.20
2019-05-11T22:35:58.568Z,91.20
2019-05-11T22:38:29.930Z,91.40
2019-05-11T22:40:58.295Z,91.40
2019-05-11T22:43:28.502Z,91.50
2019-05-11T22:45:58.066Z,91.40
2019-05-11T22:48:26.977Z,91.50
2019-05-11T22:50:55.749Z,91.30
2019-05-11T22:53:24.509Z,91.40
2019-05-11T22:55:53.046Z,91.40
2019-05-11T22:58:21.687Z,91.60
2019-05-11T23:00:50.290Z,91.60
2019-05-11T23:03:22.364Z,91.60
2019-05-11T23:05:49.262Z,92.00
2019-05-11T23:08:18.277Z,92.10
2019-05-11T23:10:47.881Z,92.10
2019-05-11T23:13:18.739Z,92.40
2019-05-11T23:15:47.775Z,92.70
2019-05-11T23:18:18.010Z,93.00
2019-05-11T23:20:47.874Z,93.60
2019-05-11T23:23:17.781Z,93.80
2019-05-11T23:25:46.793Z,94.20
2019-05-11T23:28:15.449Z,94.50
2019-05-11T23:30:44.386Z,94.80
2019-05-11T23:33:13.275Z,94.90
2019-05-11T23:35:41.954Z,95.30
2019-05-11T23:38:10.949Z,95.50
2019-05-11T23:40:39.622Z,95.60
2019-05-11T23:43:08.903Z,95.50
2019-05-11T23:45:38.179Z,95.40
2019-05-11T23:48:07.141Z,95.10
2019-05-11T23:50:38.342Z,94.90
2019-05-11T23:53:09.703Z,94.60
2019-05-11T23:55:38.035Z,94.30
2019-05-11T23:58:08.274Z,94.20
